createdAt,value
2018-02-18T16:37:42.522Z,32.80
2018-02-18T16:40:10.908Z,32.60
2018-02-18T16:42:39.231Z,32.50
2018-02-18T16:45:06.752Z,32.50
2018-02-18T16:47:35.038Z,32.40
2018-02-18T16:50:03.327Z,32.30
2018-02-18T16:52:30.880Z,32.30
2018-02-18T16:54:59.275Z,32.20
2018-02-18T16:57:26.876Z,32.20
2018-02-18T16:59:54.401Z,32.20
2018-02-18T17:02:21.958Z,32.20
2018-02-18T17:04:49.531Z,32.20
2018-02-18T17:07:17.505Z,32.20
2018-02-18T17:09:45.058Z,32.20
2018-02-18T17:12:13.349Z,32.10
2018-02-18T17:14:40.874Z,32.10
2018-02-18T17:17:08.481Z,32.10
2018-02-18T17:19:36.006Z,32.10
2018-02-18T17:22:03.526Z,32.20
2018-02-18T17:24:31.044Z,32.20
2018-02-18T17:26:59.327Z,32.20
2018-02-18T17:29:27.621Z,32.20
2018-02-18T17:31:55.923Z,32.20
2018-02-18T17:34:23.466Z,32.10
2018-02-18T17:36:50.986Z,32.10
2018-02-18T17:39:18.515Z,32.30
2018-02-18T17:41:46.026Z,32.40
2018-02-18T17:44:13.622Z,32.40
2018-02-18T17:46:41.138Z,32.30
2018-02-18T17:49:08.690Z,32.70
2018-02-18T17:51:36.264Z,32.20
2018-02-18T17:54:03.804Z,32.10
2018-02-18T17:56:31.338Z,32.10
2018-02-18T17:58:58.866Z,32.20
2018-02-18T18:01:26.462Z,32.20
2018-02-18T18:03:54.754Z,32.20
2018-02-18T18:06:22.298Z,32.20
2018-02-18T18:08:50.710Z,32.20
2018-02-18T18:11:18.268Z,32.20
2018-02-18T18:13:45.779Z,32.20
2018-02-18T18:16:13.388Z,32.30
2018-02-18T18:18:41.773Z,32.30
2018-02-18T18:21:10.043Z,32.40
2018-02-18T18:23:38.339Z,32.40
2018-02-18T18:26:05.860Z,32.80
2018-02-18T18:28:33.404Z,32.40
2018-02-18T18:31:00.915Z,32.40
2018-02-18T18:33:29.189Z,32.40
2018-02-18T18:35:57.488Z,32.40
2018-02-18T18:38:25.006Z,32.40
2018-02-18T18:40:52.531Z,32.40
2018-02-18T18:43:20.078Z,32.40
2018-02-18T18:45:47.596Z,32.40
2018-02-18T18:48:15.129Z,32.40
2018-02-18T18:50:42.647Z,32.50
2018-02-18T18:53:10.169Z,32.60
2018-02-18T18:55:37.794Z,32.60
2018-02-18T18:58:06.178Z,32.50
2018-02-18T19:00:34.558Z,32.50
2018-02-18T19:03:02.959Z,32.40
2018-02-18T19:05:30.478Z,32.40
2018-02-18T19:07:58.006Z,32.30
2018-02-18T19:10:25.550Z,32.20
2018-02-18T19:12:53.132Z,32.10
2018-02-18T19:15:20.667Z,31.90
2018-02-18T19:17:48.241Z,32.00
2018-02-18T19:20:15.764Z,32.10
2018-02-18T19:22:43.362Z,32.10
2018-02-18T19:25:10.879Z,32.10
2018-02-18T19:27:38.486Z,32.00
2018-02-18T19:30:06.919Z,32.00
2018-02-18T19:32:35.067Z,32.00
2018-02-18T19:35:02.618Z,32.00
2018-02-18T19:37:30.142Z,31.90
2018-02-18T19:39:57.734Z,32.00
2018-02-18T19:42:26.013Z,32.10
2018-02-18T19:44:54.315Z,32.10
2018-02-18T19:47:21.876Z,32.10
2018-02-18T19:49:49.390Z,32.30
2018-02-18T19:52:16.903Z,31.90
2018-02-18T19:54:45.365Z,32.00
2018-02-18T19:57:13.759Z,32.00
2018-02-18T19:59:42.052Z,32.00
2018-02-18T20:02:10.186Z,31.90
2018-02-18T20:04:37.730Z,32.00
2018-02-18T20:07:05.346Z,32.00
2018-02-18T20:09:32.862Z,32.00
2018-02-18T20:12:00.483Z,31.80
2018-02-18T20:14:28.689Z,32.00
2018-02-18T20:16:56.200Z,32.00
2018-02-18T20:19:24.490Z,31.90
2018-02-18T20:21:52.812Z,31.90
2018-02-18T20:24:20.335Z,31.90
2018-02-18T20:26:48.613Z,32.00
2018-02-18T20:29:16.915Z,32.10
2018-02-18T20:31:44.472Z,32.10
2018-02-18T20:34:11.988Z,31.90
2018-02-18T20:36:39.497Z,31.80
2018-02-18T20:39:07.888Z,32.30
2018-02-18T20:41:35.404Z,31.80
2018-02-18T20:44:02.936Z,31.90
2018-02-18T20:46:30.450Z,31.90
2018-02-18T20:48:58.732Z,32.30
2018-02-18T20:51:27.025Z,32.00
2018-02-18T20:53:55.310Z,31.70
2018-02-18T20:56:23.754Z,31.90
